Dry Wood Lake, South Dakota
Current Conditions -  °F | °C
As of 11:16 AM on Sunday 21 Dec 2014 (Local Time) from KETH Reporting Station
Haze Haze  
Wind Chill: 20°   Ceiling: 700
Heat Index: 30°   Visibility: 4mi
Dew Point: 28°   Wind: 13mph
Humidity: 93%   Direction: 140°SE
Pressure: 29.73"   Gusts: 17mph
Location:  45.7041°N, 96.9842°W
Report Text: KETH 211716Z AUTO 14011G15KT 4SM BR OVC007 M01/M02 A2973 RMK AO2
Loading
Personal Weather Stations






























Interactive Weather Map New forecast layout! Learn more

10-Day Weather Forecast

Advertisements
Track Severe Weather on mobile